Flight Track Log - Related Links

Times and Time Zones

All times are in EDT time to prevent confusion due to time zone crossing. See the SWA508 flight status page for this flight to view local times or setup timezone preferences in your user account.

Time Position Orientation Groundspeed Altitude Reporting Facility
EDT Latitude Longitude Course Direction KTS MPH feet Rate Location/Type
Mon 08:17:13 AM 28.4000 -81.3000 114° Southeast 160 184 700  Level Orlando TRACON
Mon 08:19:01 AM 28.3667 -81.2167 114° Southeast 258 297 4,800 2,620 Climbing Orlando TRACON
Mon 08:21:02 AM 28.5081 -81.2011 North 293 337 10,700 2,913 Climbing Jacksonville Center
Mon 08:23:02 AM 28.7044 -81.2050 359° North 344 396 16,500 2,900 Climbing Jacksonville Center
Mon 08:25:02 AM 28.9014 -81.2775 342° North 369 425 22,300 2,700 Climbing Jacksonville Center
Mon 08:26:02 AM 29.0025 -81.3400 332° Northwest 383 441 24,600 2,300 Climbing Jacksonville Center
Mon 08:27:02 AM 29.1094 -81.3906 338° Northwest 395 455 26,900 2,200 Climbing Jacksonville Center
Mon 08:28:02 AM 29.2306 -81.3958 358° North 408 470 29,000 1,750 Climbing Jacksonville Center
Mon 08:29:02 AM 29.3558 -81.3964 360° North 431 496 30,400 1,550 Climbing Jacksonville Center
Mon 08:30:02 AM 29.4853 -81.3992 359° North 448 516 32,100 1,750 Climbing Jacksonville Center
Mon 08:31:02 AM 29.6147 -81.3994 360° North 454 522 33,900 1,650 Climbing Jacksonville Center
Mon 08:32:02 AM 29.7297 -81.4025 359° North 460 529 35,400 1,650 Climbing Jacksonville Center
Mon 08:33:02 AM 29.8842 -81.4050 359° North 460 529 37,200 900 Climbing Jacksonville Center
Mon 08:35:00 AM 30.1124 -81.4000 North  Level FlightAware Approximate
Mon 08:36:02 AM 30.2742 -81.3678 North 460 529 39,000  Level Jacksonville Center
Mon 08:37:02 AM 30.4033 -81.3583 North 460 529 39,000  Level Jacksonville Center
Mon 08:38:02 AM 30.5328 -81.3467 North 460 529 39,000  Level Jacksonville Center
Mon 08:39:02 AM 30.6619 -81.3372 North 460 529 39,000  Level Jacksonville Center
Mon 08:41:02 AM 30.9206 -81.3136 North 460 529 39,000  Level Jacksonville Center
Mon 08:42:02 AM 31.0519 -81.3017 North 460 529 39,000  Level Jacksonville Center
Mon 08:44:02 AM 31.3106 -81.2781 North 459 528 39,000  Level Jacksonville Center
Mon 08:45:02 AM 31.4400 -81.2636 North 459 528 39,000  Level Jacksonville Center
Mon 08:47:02 AM 31.6881 -81.2422 North 464 534 39,000  Level Jacksonville Center
Mon 08:48:02 AM 31.8319 -81.2272 North 464 534 39,000  Level Jacksonville Center
Mon 08:49:02 AM 31.9531 -81.2203 North 464 534 39,000  Level Jacksonville Center
Mon 08:50:02 AM 32.0844 -81.2056 North 471 542 39,000  Level Jacksonville Center
Mon 08:51:02 AM 32.2178 -81.1933 North 476 548 39,000  Level Jacksonville Center
Mon 08:52:02 AM 32.3514 -81.1833 North 476 548 39,000  Level Jacksonville Center
Mon 08:53:02 AM 32.4992 -81.1708 North 482 555 39,000  Level Jacksonville Center
Mon 08:54:02 AM 32.6306 -81.1608 North 476 548 39,000  Level Jacksonville Center
Mon 08:56:02 AM 32.8847 -81.1067 10° North 481 554 39,000  Level Jacksonville Center
Mon 08:57:02 AM 33.0136 -81.0742 12° North 481 554 39,000  Level Jacksonville Center
Mon 08:58:03 AM 33.1447 -81.0469 10° North 481 554 39,000  Level Jacksonville Center
Mon 08:59:02 AM 33.2756 -81.0142 12° North 481 554 39,000  Level Jacksonville Center
Mon 09:00:02 AM 33.4047 -80.9867 10° North 481 554 39,000  Level Jacksonville Center
Mon 09:02:02 AM 33.6667 -80.9261 11° North 481 554 39,000  Level Jacksonville Center
Mon 09:03:03 AM 33.7956 -80.8983 10° North 481 554 39,000  Level Jacksonville Center
Mon 09:05:00 AM 34.0256 -80.8993 360° North  Level FlightAware Approximate
Mon 09:06:46 AM 34.2811 -80.7833 North 471 542 39,000  Level Atlanta Center
Mon 09:07:45 AM 34.4119 -80.7531 11° North 471 542 39,000  Level Atlanta Center
Mon 09:09:00 AM 34.5535 -80.7117 14° North  Level FlightAware Approximate
Mon 09:09:45 AM 34.6753 -80.6922 14° North 462 532 39,000  Level Atlanta Center
Mon 09:10:45 AM 34.8081 -80.6617 11° North 472 543 39,000  Level Atlanta Center
Mon 09:11:46 AM 34.9386 -80.6283 12° North 467 537 39,000  Level Atlanta Center
Mon 09:12:00 AM 34.8490 -80.7899 North  Level FlightAware Approximate
Mon 09:12:46 AM 35.0692 -80.6003 10° North 467 537 39,000  Level Atlanta Center
Mon 09:13:45 AM 35.2183 -80.5636 11° North 478 550 39,000  Level Atlanta Center
Mon 09:14:45 AM 35.3553 -80.5297 11° North 484 557 39,000  Level Atlanta Center
Mon 09:15:46 AM 35.4858 -80.4986 11° North 484 557 39,000  Level Atlanta Center
Mon 09:17:00 AM 35.6277 -80.4617 12° North  Level FlightAware Approximate
Mon 09:17:46 AM 35.7508 -80.4358 12° North 484 557 39,000  Level Atlanta Center
Mon 09:18:46 AM 35.8814 -80.4044 11° North 484 557 39,000  Level Atlanta Center
Mon 09:19:45 AM 36.0014 -80.3708 13° North 484 557 39,000  Level Atlanta Center
Mon 09:20:46 AM 36.1339 -80.3392 11° North 479 551 39,000  Level Atlanta Center
Mon 09:21:45 AM 36.2686 -80.3097 10° North 484 557 39,000  Level Atlanta Center
Mon 09:22:45 AM 36.4175 -80.2719 12° North 484 557 39,000  Level Atlanta Center
Mon 09:24:50 AM 36.6889 -80.2078 11° North 491 565 39,000 -172 Level Washington Center
Mon 09:26:00 AM 36.8201 -80.1587 11° North  Level FlightAware Approximate
Mon 09:26:49 AM 36.9331 -80.1494 11° North 475 547 38,300  Level Washington Center
Mon 09:28:00 AM 37.0692 -80.1136 12° North  Level FlightAware Approximate
Mon 09:28:50 AM 37.1983 -80.0844 12° North 470 541 35,600  Level Washington Center
Mon 09:29:48 AM 37.3311 -80.0506 11° North 475 547 35,000 -1,068 Descending Washington Center
Mon 09:30:48 AM 37.4786 -80.0147 11° North 485 558 33,500 -1,686 Descending Washington Center
Mon 09:31:49 AM 37.6133 -79.9806 11° North 490 564 31,600 -1,260 Descending Washington Center
Mon 09:33:00 AM 37.7475 -79.9342 15° North  Level FlightAware Approximate
Mon 09:33:49 AM 37.8806 -79.9144 15° North 490 564 29,700  Level Washington Center
Mon 09:35:00 AM 38.0163 -79.8760 13° North  Level FlightAware Approximate
Mon 09:36:49 AM 38.2531 -79.8197 12° North 464 534 25,700  Level Washington Center
Mon 09:37:49 AM 38.3731 -79.7869 12° North 447 514 24,000 -843 Descending Washington Center
Mon 09:38:50 AM 38.4931 -79.7564 11° North 433 498 24,000  Level Washington Center
Mon 09:39:50 AM 38.6067 -79.7283 11° North 426 490 24,000 -149 Level Washington Center
Mon 09:40:51 AM 38.7392 -79.6931 12° North 427 491 23,700 -781 Descending Washington Center
Mon 09:42:00 AM 38.8213 -79.6579 12° North  Level FlightAware Approximate
Mon 09:43:25 AM 39.0292 -79.6106 12° North 429 494 21,200  Level Cleveland Center
Mon 09:44:25 AM 39.1394 -79.5875 North 418 481 20,200 -725 Descending Cleveland Center
Mon 09:46:27 AM 39.3606 -79.6086 356° North 397 457 19,000 -400 Descending Cleveland Center
Mon 09:47:25 AM 39.4711 -79.6258 353° North 397 457 19,000  Level Cleveland Center
Mon 09:48:25 AM 39.5817 -79.6403 354° North 397 457 19,000  Level Cleveland Center
Mon 09:49:25 AM 39.6922 -79.6522 355° North 397 457 19,000 -298 Level Cleveland Center
Mon 09:50:26 AM 39.8031 -79.6669 354° North 397 457 18,400 -1,400 Descending Cleveland Center
Mon 09:51:25 AM 39.9094 -79.6792 355° North 391 450 16,200 -2,269 Descending Cleveland Center
Mon 09:52:25 AM 40.0136 -79.6914 355° North 381 438 13,900 -2,132 Descending Cleveland Center
Mon 09:53:26 AM 40.0956 -79.7636 326° Northwest 353 406 11,900 -1,293 Descending Cleveland Center
Mon 09:55:26 AM 40.2197 -79.9578 310° West 343 395 10,000 -775 Descending Cleveland Center
Mon 09:56:24 AM 40.2806 -80.0469 312° West 338 389 9,600 -872 Descending Cleveland Center
Mon 09:58:00 AM 40.4403 -80.1876 308° West  Level Estimated
Mon 09:58:25 AM 40.3814 -80.2097 308° West 304 350 7,400  Level Cleveland Center
Mon 09:59:25 AM 40.3961 -80.2997 282° West 263 303 6,400 -1,000 Descending Cleveland Center
Mon 10:01:00 AM 40.4833 -80.2167 303° West  Level FlightAware Approximate
Mon 10:08:00 AM 40.4915 -80.2329 303° West  Level Estimated
Mon 10:09:00 AM 40.4915 -80.2329 303° West  Level Estimated

Login

Don't have an account? Register now (free) for customized features, flight alerts, and more!